sensor_id;sensor_type;location;lat;lon;timestamp;pressure;altitude;pressure_sealevel;temperature;humidity
74372;BME280;62885;51.374;6.170;2023-04-05T00:00:53;102136.56;;;4.33;65.30
74372;BME280;62885;51.374;6.170;2023-04-05T00:03:18;102133.00;;;4.35;65.33
74372;BME280;62885;51.374;6.170;2023-04-05T00:05:44;102133.91;;;4.34;65.18
74372;BME280;62885;51.374;6.170;2023-04-05T00:08:10;102130.28;;;4.37;65.21
74372;BME280;62885;51.374;6.170;2023-04-05T00:10:42;102128.81;;;4.25;65.60
74372;BME280;62885;51.374;6.170;2023-04-05T00:13:07;102133.34;;;4.22;65.16
74372;BME280;62885;51.374;6.170;2023-04-05T00:15:33;102133.31;;;4.23;65.45
74372;BME280;62885;51.374;6.170;2023-04-05T00:17:58;102137.03;;;4.16;64.88
74372;BME280;62885;51.374;6.170;2023-04-05T00:20:24;102126.88;;;3.99;65.88
74372;BME280;62885;51.374;6.170;2023-04-05T00:22:56;102132.97;;;4.03;65.99
74372;BME280;62885;51.374;6.170;2023-04-05T00:25:21;102134.69;;;4.04;67.71
74372;BME280;62885;51.374;6.170;2023-04-05T00:27:46;102119.63;;;4.07;67.64
74372;BME280;62885;51.374;6.170;2023-04-05T00:30:12;102112.56;;;4.06;67.88
74372;BME280;62885;51.374;6.170;2023-04-05T00:32:46;102113.63;;;3.99;68.22
74372;BME280;62885;51.374;6.170;2023-04-05T00:35:12;102112.09;;;3.91;68.07
74372;BME280;62885;51.374;6.170;2023-04-05T00:37:37;102104.09;;;3.92;66.61
74372;BME280;62885;51.374;6.170;2023-04-05T00:40:02;102107.66;;;3.91;66.53
74372;BME280;62885;51.374;6.170;2023-04-05T00:42:28;102103.22;;;3.92;66.76
74372;BME280;62885;51.374;6.170;2023-04-05T00:44:54;102111.28;;;3.89;66.85
74372;BME280;62885;51.374;6.170;2023-04-05T00:47:19;102110.41;;;3.88;67.19
74372;BME280;62885;51.374;6.170;2023-04-05T00:49:45;102099.97;;;3.82;67.61
74372;BME280;62885;51.374;6.170;2023-04-05T00:52:10;102094.72;;;3.79;68.11
74372;BME280;62885;51.374;6.170;2023-04-05T00:54:37;102096.69;;;3.72;68.35
74372;BME280;62885;51.374;6.170;2023-04-05T00:57:03;102104.00;;;3.61;68.43
74372;BME280;62885;51.374;6.170;2023-04-05T00:59:31;102107.78;;;3.51;69.31
74372;BME280;62885;51.374;6.170;2023-04-05T01:02:02;102110.41;;;3.53;69.41
74372;BME280;62885;51.374;6.170;2023-04-05T01:04:32;102107.75;;;3.54;69.78
74372;BME280;62885;51.374;6.170;2023-04-05T01:07:07;102104.44;;;3.45;70.46
74372;BME280;62885;51.374;6.170;2023-04-05T01:12:05;102102.06;;;3.33;71.80
74372;BME280;62885;51.374;6.170;2023-04-05T01:14:31;102090.56;;;3.35;72.32
74372;BME280;62885;51.374;6.170;2023-04-05T01:16:57;102094.06;;;3.36;72.39
74372;BME280;62885;51.374;6.170;2023-04-05T01:19:28;102098.13;;;3.13;71.71
74372;BME280;62885;51.374;6.170;2023-04-05T01:22:22;102093.84;;;3.08;72.15
74372;BME280;62885;51.374;6.170;2023-04-05T01:30:23;102082.50;;;3.03;72.68
74372;BME280;62885;51.374;6.170;2023-04-05T01:35:53;102078.19;;;2.99;73.13
74372;BME280;62885;51.374;6.170;2023-04-05T01:38:23;102084.31;;;3.01;72.97
74372;BME280;62885;51.374;6.170;2023-04-05T01:40:50;102084.44;;;2.96;73.14
74372;BME280;62885;51.374;6.170;2023-04-05T01:43:17;102078.31;;;2.93;73.06
74372;BME280;62885;51.374;6.170;2023-04-05T01:45:43;102079.13;;;2.96;73.23
74372;BME280;62885;51.374;6.170;2023-04-05T01:48:10;102078.28;;;2.94;72.80
74372;BME280;62885;51.374;6.170;2023-04-05T01:50:35;102080.06;;;2.94;73.11
74372;BME280;62885;51.374;6.170;2023-04-05T01:53:01;102078.41;;;2.89;72.91
74372;BME280;62885;51.374;6.170;2023-04-05T01:55:26;102072.28;;;2.86;72.49
74372;BME280;62885;51.374;6.170;2023-04-05T01:57:53;102082.06;;;2.82;72.56
74372;BME280;62885;51.374;6.170;2023-04-05T02:00:20;102073.28;;;2.82;72.55
74372;BME280;62885;51.374;6.170;2023-04-05T02:02:45;102076.75;;;2.84;73.42
74372;BME280;62885;51.374;6.170;2023-04-05T02:05:11;102070.59;;;2.83;73.36
74372;BME280;62885;51.374;6.170;2023-04-05T02:07:36;102069.72;;;2.83;74.16
74372;BME280;62885;51.374;6.170;2023-04-05T02:10:02;102069.75;;;2.81;74.97
74372;BME280;62885;51.374;6.170;2023-04-05T02:12:27;102065.56;;;2.73;75.82
74372;BME280;62885;51.374;6.170;2023-04-05T02:14:53;102075.31;;;2.69;76.16
74372;BME280;62885;51.374;6.170;2023-04-05T02:17:18;102060.28;;;2.71;76.07
74372;BME280;62885;51.374;6.170;2023-04-05T02:19:44;102065.56;;;2.73;75.90
74372;BME280;62885;51.374;6.170;2023-04-05T02:22:11;102069.19;;;2.67;76.24
74372;BME280;62885;51.374;6.170;2023-04-05T02:24:36;102059.66;;;2.60;76.56
74372;BME280;62885;51.374;6.170;2023-04-05T02:27:02;102062.41;;;2.56;77.09
74372;BME280;62885;51.374;6.170;2023-04-05T02:29:27;102057.03;;;2.59;76.38
74372;BME280;62885;51.374;6.170;2023-04-05T02:31:53;102057.81;;;2.64;75.26
74372;BME280;62885;51.374;6.170;2023-04-05T02:34:18;102060.44;;;2.64;75.38
74372;BME280;62885;51.374;6.170;2023-04-05T02:36:46;102054.47;;;2.56;75.12
74372;BME280;62885;51.374;6.170;2023-04-05T02:39:11;102059.69;;;2.57;74.20
74372;BME280;62885;51.374;6.170;2023-04-05T02:41:37;102057.16;;;2.53;73.88
74372;BME280;62885;51.374;6.170;2023-04-05T02:44:03;102062.56;;;2.48;74.42
74372;BME280;62885;51.374;6.170;2023-04-05T02:46:28;102066.09;;;2.47;74.43
74372;BME280;62885;51.374;6.170;2023-04-05T02:48:54;102061.84;;;2.40;74.10
74372;BME280;62885;51.374;6.170;2023-04-05T02:51:19;102058.31;;;2.39;74.37
74372;BME280;62885;51.374;6.170;2023-04-05T02:53:44;102052.16;;;2.39;74.09
74372;BME280;62885;51.374;6.170;2023-04-05T02:56:10;102053.16;;;2.33;73.95
74372;BME280;62885;51.374;6.170;2023-04-05T02:58:38;102054.97;;;2.31;73.88
74372;BME280;62885;51.374;6.170;2023-04-05T03:01:03;102056.91;;;2.23;74.86
74372;BME280;62885;51.374;6.170;2023-04-05T03:03:32;102055.19;;;2.21;75.49
74372;BME280;62885;51.374;6.170;2023-04-05T03:06:03;102052.03;;;2.02;76.96
74372;BME280;62885;51.374;6.170;2023-04-05T03:08:36;102046.63;;;2.10;76.91
74372;BME280;62885;51.374;6.170;2023-04-05T03:11:04;102043.34;;;1.97;77.81
74372;BME280;62885;51.374;6.170;2023-04-05T03:13:30;102052.91;;;2.02;78.15
74372;BME280;62885;51.374;6.170;2023-04-05T03:15:56;102043.03;;;2.12;77.62
74372;BME280;62885;51.374;6.170;2023-04-05T03:18:23;102043.09;;;2.09;77.45
74372;BME280;62885;51.374;6.170;2023-04-05T03:20:51;102042.50;;;1.93;77.96
74372;BME280;62885;51.374;6.170;2023-04-05T03:23:26;102038.13;;;1.92;78.05
74372;BME280;62885;51.374;6.170;2023-04-05T03:26:03;102030.47;;;1.79;78.69
74372;BME280;62885;51.374;6.170;2023-04-05T03:28:30;102032.22;;;1.80;79.29
74372;BME280;62885;51.374;6.170;2023-04-05T03:30:58;102034.81;;;1.81;79.27
74372;BME280;62885;51.374;6.170;2023-04-05T03:33:24;102021.72;;;1.77;79.78
74372;BME280;62885;51.374;6.170;2023-04-05T03:35:50;102032.44;;;1.68;78.79
74372;BME280;62885;51.374;6.170;2023-04-05T03:38:15;102024.34;;;1.78;78.69
74372;BME280;62885;51.374;6.170;2023-04-05T03:40:41;102030.69;;;1.68;79.76
74372;BME280;62885;51.374;6.170;2023-04-05T03:43:06;102026.44;;;1.59;79.59
74372;BME280;62885;51.374;6.170;2023-04-05T03:45:32;102021.28;;;1.52;79.02
74372;BME280;62885;51.374;6.170;2023-04-05T03:47:58;102023.88;;;1.55;79.48
74372;BME280;62885;51.374;6.170;2023-04-05T03:50:24;102021.22;;;1.56;79.05
74372;BME280;62885;51.374;6.170;2023-04-05T03:52:50;102025.50;;;1.62;78.79
74372;BME280;62885;51.374;6.170;2023-04-05T03:55:16;102022.81;;;1.65;78.30
74372;BME280;62885;51.374;6.170;2023-04-05T03:57:41;102013.13;;;1.64;78.53
74372;BME280;62885;51.374;6.170;2023-04-05T04:00:08;102011.56;;;1.54;79.15
74372;BME280;62885;51.374;6.170;2023-04-05T04:02:45;102015.06;;;1.56;78.60
74372;BME280;62885;51.374;6.170;2023-04-05T04:05:11;102003.09;;;1.37;78.88
74372;BME280;62885;51.374;6.170;2023-04-05T04:07:37;102006.41;;;1.48;78.89
74372;BME280;62885;51.374;6.170;2023-04-05T04:10:03;102009.91;;;1.48;79.60
74372;BME280;62885;51.374;6.170;2023-04-05T04:12:29;102012.19;;;1.19;78.60
74372;BME280;62885;51.374;6.170;2023-04-05T04:14:54;102011.31;;;1.18;78.55
74372;BME280;62885;51.374;6.170;2023-04-05T04:17:34;102009.63;;;1.14;79.58
74372;BME280;62885;51.374;6.170;2023-04-05T04:20:00;102008.63;;;1.21;78.81
74372;BME280;62885;51.374;6.170;2023-04-05T04:22:26;102006.78;;;1.28;79.03
74372;BME280;62885;51.374;6.170;2023-04-05T04:24:57;102008.56;;;1.26;78.93
74372;BME280;62885;51.374;6.170;2023-04-05T04:27:27;102011.00;;;1.38;78.63
74372;BME280;62885;51.374;6.170;2023-04-05T04:29:54;102012.88;;;1.30;79.45
74372;BME280;62885;51.374;6.170;2023-04-05T04:32:27;102009.25;;;1.37;78.64
74372;BME280;62885;51.374;6.170;2023-04-05T04:35:13;102013.63;;;1.38;79.08
74372;BME280;62885;51.374;6.170;2023-04-05T04:37:44;102006.94;;;1.17;79.01
74372;BME280;62885;51.374;6.170;2023-04-05T04:40:14;102005.25;;;1.13;79.87
74372;BME280;62885;51.374;6.170;2023-04-05T04:42:42;102002.06;;;0.93;79.68
74372;BME280;62885;51.374;6.170;2023-04-05T04:45:14;102008.94;;;1.02;79.98
74372;BME280;62885;51.374;6.170;2023-04-05T04:47:43;102009.81;;;1.02;80.17
74372;BME280;62885;51.374;6.170;2023-04-05T04:50:09;102014.03;;;1.12;80.00
74372;BME280;62885;51.374;6.170;2023-04-05T04:52:37;102012.25;;;1.16;79.41
74372;BME280;62885;51.374;6.170;2023-04-05T04:55:02;102017.81;;;0.96;80.19
74372;BME280;62885;51.374;6.170;2023-04-05T04:57:28;102018.53;;;1.07;80.65
74372;BME280;62885;51.374;6.170;2023-04-05T04:59:54;102022.03;;;1.09;80.06
74372;BME280;62885;51.374;6.170;2023-04-05T05:02:23;102009.81;;;1.04;80.67
74372;BME280;62885;51.374;6.170;2023-04-05T05:04:49;102008.69;;;1.17;79.25
74372;BME280;62885;51.374;6.170;2023-04-05T05:07:14;102006.88;;;1.20;78.90
74372;BME280;62885;51.374;6.170;2023-04-05T05:09:40;102012.41;;;1.05;80.69
74372;BME280;62885;51.374;6.170;2023-04-05T05:12:05;102017.91;;;0.90;80.57
74372;BME280;62885;51.374;6.170;2023-04-05T05:14:31;102017.09;;;0.87;81.03
74372;BME280;62885;51.374;6.170;2023-04-05T05:16:56;102008.34;;;0.83;81.02
74372;BME280;62885;51.374;6.170;2023-04-05T05:19:24;102015.25;;;0.93;81.30
74372;BME280;62885;51.374;6.170;2023-04-05T05:21:50;102007.19;;;1.01;81.48
74372;BME280;62885;51.374;6.170;2023-04-05T05:24:18;102018.41;;;1.16;81.31
74372;BME280;62885;51.374;6.170;2023-04-05T05:26:43;102010.41;;;1.19;80.36
74372;BME280;62885;51.374;6.170;2023-04-05T05:29:09;102015.72;;;1.18;80.41
74372;BME280;62885;51.374;6.170;2023-04-05T05:31:34;102010.50;;;1.16;80.49
74372;BME280;62885;51.374;6.170;2023-04-05T05:34:02;102015.78;;;1.64;79.03
74372;BME280;62885;51.374;6.170;2023-04-05T05:36:27;102014.66;;;1.77;78.07
74372;BME280;62885;51.374;6.170;2023-04-05T05:38:53;102011.34;;;2.12;77.03
74372;BME280;62885;51.374;6.170;2023-04-05T05:41:19;102012.00;;;2.22;76.12
74372;BME280;62885;51.374;6.170;2023-04-05T05:43:45;102013.56;;;2.32;75.17
74372;BME280;62885;51.374;6.170;2023-04-05T05:46:11;102016.09;;;2.38;74.72
74372;BME280;62885;51.374;6.170;2023-04-05T05:48:36;102008.31;;;2.70;73.44
74372;BME280;62885;51.374;6.170;2023-04-05T05:51:01;102013.19;;;3.24;71.84
74372;BME280;62885;51.374;6.170;2023-04-05T05:53:27;102013.34;;;3.52;70.41
74372;BME280;62885;51.374;6.170;2023-04-05T05:55:52;102012.63;;;3.47;69.85
74372;BME280;62885;51.374;6.170;2023-04-05T05:58:18;102013.94;;;3.63;69.53
74372;BME280;62885;51.374;6.170;2023-04-05T06:00:43;102009.00;;;3.83;68.88
74372;BME280;62885;51.374;6.170;2023-04-05T06:03:09;102009.91;;;3.82;68.13
74372;BME280;62885;51.374;6.170;2023-04-05T06:05:35;102009.84;;;3.16;69.61
74372;BME280;62885;51.374;6.170;2023-04-05T06:08:00;102011.69;;;3.49;68.86
74372;BME280;62885;51.374;6.170;2023-04-05T06:10:30;102005.97;;;4.26;66.59
74372;BME280;62885;51.374;6.170;2023-04-05T06:12:55;102018.16;;;4.33;66.05
74372;BME280;62885;51.374;6.170;2023-04-05T06:15:20;102006.59;;;4.36;64.98
74372;BME280;62885;51.374;6.170;2023-04-05T06:17:46;102010.06;;;4.38;65.08
74372;BME280;62885;51.374;6.170;2023-04-05T06:20:11;102015.53;;;4.61;63.98
74372;BME280;62885;51.374;6.170;2023-04-05T06:22:38;102011.56;;;4.76;63.99
74372;BME280;62885;51.374;6.170;2023-04-05T06:25:06;102015.03;;;5.32;62.40
74372;BME280;62885;51.374;6.170;2023-04-05T06:27:32;102013.81;;;7.30;55.38
74372;BME280;62885;51.374;6.170;2023-04-05T06:30:00;102008.25;;;6.47;56.53
74372;BME280;62885;51.374;6.170;2023-04-05T06:32:26;102010.69;;;5.56;59.70
74372;BME280;62885;51.374;6.170;2023-04-05T06:34:51;102007.41;;;5.74;59.64
74372;BME280;62885;51.374;6.170;2023-04-05T06:37:17;102009.97;;;5.51;60.44
74372;BME280;62885;51.374;6.170;2023-04-05T06:39:42;102008.34;;;4.94;61.92
74372;BME280;62885;51.374;6.170;2023-04-05T06:42:08;102008.94;;;5.55;60.58
74372;BME280;62885;51.374;6.170;2023-04-05T06:44:33;102009.41;;;5.67;59.90
74372;BME280;62885;51.374;6.170;2023-04-05T06:46:59;102004.94;;;5.68;60.15
74372;BME280;62885;51.374;6.170;2023-04-05T06:49:24;102008.13;;;5.77;59.88
74372;BME280;62885;51.374;6.170;2023-04-05T06:51:49;102009.22;;;5.72;59.31
74372;BME280;62885;51.374;6.170;2023-04-05T06:54:15;102013.25;;;6.08;58.44
74372;BME280;62885;51.374;6.170;2023-04-05T06:56:40;102005.94;;;5.90;59.34
74372;BME280;62885;51.374;6.170;2023-04-05T06:59:06;102006.31;;;5.28;59.82
74372;BME280;62885;51.374;6.170;2023-04-05T07:01:31;102005.50;;;5.00;61.23
74372;BME280;62885;51.374;6.170;2023-04-05T07:03:56;102007.16;;;5.03;61.79
74372;BME280;62885;51.374;6.170;2023-04-05T07:06:22;102003.47;;;5.07;62.11
74372;BME280;62885;51.374;6.170;2023-04-05T07:08:48;102001.50;;;5.13;60.92
74372;BME280;62885;51.374;6.170;2023-04-05T07:11:13;102006.16;;;5.33;61.27
74372;BME280;62885;51.374;6.170;2023-04-05T07:13:39;102007.53;;;5.18;61.68
74372;BME280;62885;51.374;6.170;2023-04-05T07:16:05;102010.88;;;4.97;62.26
74372;BME280;62885;51.374;6.170;2023-04-05T07:18:31;102000.69;;;5.37;61.55
74372;BME280;62885;51.374;6.170;2023-04-05T07:20:58;102005.41;;;5.02;61.01
74372;BME280;62885;51.374;6.170;2023-04-05T07:23:28;102003.03;;;5.20;61.60
74372;BME280;62885;51.374;6.170;2023-04-05T07:25:54;102009.66;;;5.07;61.29
74372;BME280;62885;51.374;6.170;2023-04-05T07:28:23;102009.63;;;5.09;61.72
74372;BME280;62885;51.374;6.170;2023-04-05T07:30:48;102008.38;;;5.19;61.60
74372;BME280;62885;51.374;6.170;2023-04-05T07:33:14;102007.13;;;5.30;61.49
74372;BME280;62885;51.374;6.170;2023-04-05T07:35:40;102016.53;;;5.41;61.06
74372;BME280;62885;51.374;6.170;2023-04-05T07:38:05;102001.97;;;5.52;58.97
74372;BME280;62885;51.374;6.170;2023-04-05T07:40:30;102007.16;;;5.55;57.49
74372;BME280;62885;51.374;6.170;2023-04-05T07:42:56;102007.94;;;5.59;56.64
74372;BME280;62885;51.374;6.170;2023-04-05T07:45:21;102007.16;;;5.55;56.54
74372;BME280;62885;51.374;6.170;2023-04-05T07:47:46;102018.56;;;5.59;56.58
74372;BME280;62885;51.374;6.170;2023-04-05T07:50:12;102013.09;;;5.37;55.18
74372;BME280;62885;51.374;6.170;2023-04-05T07:52:40;102011.25;;;5.39;55.34
74372;BME280;62885;51.374;6.170;2023-04-05T07:55:07;102016.03;;;5.54;56.15
74372;BME280;62885;51.374;6.170;2023-04-05T07:57:32;102013.84;;;5.67;55.66
74372;BME280;62885;51.374;6.170;2023-04-05T07:59:57;102019.34;;;5.61;55.04
74372;BME280;62885;51.374;6.170;2023-04-05T08:02:23;102021.94;;;5.64;54.64
74372;BME280;62885;51.374;6.170;2023-04-05T08:04:48;102015.19;;;5.78;54.48
74372;BME280;62885;51.374;6.170;2023-04-05T08:07:13;102015.66;;;5.91;54.00
74372;BME280;62885;51.374;6.170;2023-04-05T08:09:39;102006.97;;;5.86;53.90
74372;BME280;62885;51.374;6.170;2023-04-05T08:12:04;102017.34;;;5.94;53.64
74372;BME280;62885;51.374;6.170;2023-04-05T08:14:30;102009.78;;;6.06;53.33
74372;BME280;62885;51.374;6.170;2023-04-05T08:16:56;102012.69;;;6.24;53.36
74372;BME280;62885;51.374;6.170;2023-04-05T08:19:21;102011.59;;;6.29;52.75
74372;BME280;62885;51.374;6.170;2023-04-05T08:21:46;102020.63;;;6.25;52.55
74372;BME280;62885;51.374;6.170;2023-04-05T08:24:12;102014.38;;;6.26;52.91
74372;BME280;62885;51.374;6.170;2023-04-05T08:26:37;102017.22;;;6.22;52.28
74372;BME280;62885;51.374;6.170;2023-04-05T08:29:02;102014.25;;;6.29;52.50
74372;BME280;62885;51.374;6.170;2023-04-05T08:31:28;102010.25;;;6.41;52.05
74372;BME280;62885;51.374;6.170;2023-04-05T08:33:54;102006.63;;;6.43;52.02
74372;BME280;62885;51.374;6.170;2023-04-05T08:36:19;102012.91;;;6.41;52.36
74372;BME280;62885;51.374;6.170;2023-04-05T08:38:44;102017.22;;;6.45;52.21
74372;BME280;62885;51.374;6.170;2023-04-05T08:41:16;102014.66;;;6.65;51.53
74372;BME280;62885;51.374;6.170;2023-04-05T08:43:55;102010.88;;;6.71;51.34
74372;BME280;62885;51.374;6.170;2023-04-05T08:46:22;102015.09;;;6.76;50.89
74372;BME280;62885;51.374;6.170;2023-04-05T08:48:48;102008.75;;;6.80;50.72
74372;BME280;62885;51.374;6.170;2023-04-05T08:51:17;102009.63;;;6.81;50.64
74372;BME280;62885;51.374;6.170;2023-04-05T08:53:43;102011.50;;;6.77;50.24
74372;BME280;62885;51.374;6.170;2023-04-05T08:56:09;102008.50;;;6.86;50.07
74372;BME280;62885;51.374;6.170;2023-04-05T08:58:36;102007.06;;;6.99;50.44
74372;BME280;62885;51.374;6.170;2023-04-05T09:01:03;102011.28;;;7.05;50.00
74372;BME280;62885;51.374;6.170;2023-04-05T09:03:36;102005.59;;;7.14;50.13
74372;BME280;62885;51.374;6.170;2023-04-05T09:06:06;102011.63;;;7.18;49.42
74372;BME280;62885;51.374;6.170;2023-04-05T09:08:33;102005.88;;;7.28;48.34
74372;BME280;62885;51.374;6.170;2023-04-05T09:10:59;102001.13;;;7.15;48.47
74372;BME280;62885;51.374;6.170;2023-04-05T09:13:24;102013.78;;;7.10;48.36
74372;BME280;62885;51.374;6.170;2023-04-05T09:15:50;102009.91;;;7.17;49.16
74372;BME280;62885;51.374;6.170;2023-04-05T09:18:16;102005.03;;;7.28;48.81
74372;BME280;62885;51.374;6.170;2023-04-05T09:20:42;102004.28;;;7.24;48.58
74372;BME280;62885;51.374;6.170;2023-04-05T09:23:07;101998.72;;;7.51;47.99
74372;BME280;62885;51.374;6.170;2023-04-05T09:25:37;102003.13;;;7.72;46.90
74372;BME280;62885;51.374;6.170;2023-04-05T09:28:10;102008.31;;;7.75;47.18
74372;BME280;62885;51.374;6.170;2023-04-05T09:30:36;102000.75;;;7.86;45.18
74372;BME280;62885;51.374;6.170;2023-04-05T09:33:03;101996.00;;;7.72;44.70
74372;BME280;62885;51.374;6.170;2023-04-05T09:35:30;101989.31;;;7.82;45.36
74372;BME280;62885;51.374;6.170;2023-04-05T09:37:58;101999.50;;;7.93;45.44
74372;BME280;62885;51.374;6.170;2023-04-05T09:40:39;101995.09;;;7.92;45.17
74372;BME280;62885;51.374;6.170;2023-04-05T09:43:05;101987.19;;;7.91;44.31
74372;BME280;62885;51.374;6.170;2023-04-05T09:45:37;101985.84;;;8.01;44.13
74372;BME280;62885;51.374;6.170;2023-04-05T09:48:03;101990.84;;;8.08;43.15
74372;BME280;62885;51.374;6.170;2023-04-05T09:50:28;101990.84;;;8.27;43.65
74372;BME280;62885;51.374;6.170;2023-04-05T09:55:32;101992.44;;;8.33;42.10
74372;BME280;62885;51.374;6.170;2023-04-05T09:57:57;101981.66;;;8.53;42.63
74372;BME280;62885;51.374;6.170;2023-04-05T10:00:23;101986.13;;;8.52;43.08
74372;BME280;62885;51.374;6.170;2023-04-05T10:02:52;101982.75;;;8.49;43.36
74372;BME280;62885;51.374;6.170;2023-04-05T10:05:18;101978.00;;;8.55;42.65
74372;BME280;62885;51.374;6.170;2023-04-05T10:07:45;101971.00;;;8.72;44.35
74372;BME280;62885;51.374;6.170;2023-04-05T10:10:11;101971.69;;;8.75;43.30
74372;BME280;62885;51.374;6.170;2023-04-05T10:12:38;101978.72;;;8.59;43.08
74372;BME280;62885;51.374;6.170;2023-04-05T10:15:06;101967.22;;;8.57;42.84
74372;BME280;62885;51.374;6.170;2023-04-05T10:20:09;101966.66;;;8.69;41.68
74372;BME280;62885;51.374;6.170;2023-04-05T10:23:00;101966.59;;;8.71;41.87
74372;BME280;62885;51.374;6.170;2023-04-05T10:25:46;101971.41;;;8.81;41.22
74372;BME280;62885;51.374;6.170;2023-04-05T10:31:27;101966.09;;;8.98;40.18
74372;BME280;62885;51.374;6.170;2023-04-05T10:34:05;101969.56;;;9.00;40.76
74372;BME280;62885;51.374;6.170;2023-04-05T10:39:41;101955.13;;;9.22;40.17
74372;BME280;62885;51.374;6.170;2023-04-05T10:42:26;101958.75;;;9.38;39.93
74372;BME280;62885;51.374;6.170;2023-04-05T10:44:54;101957.13;;;9.35;39.23
74372;BME280;62885;51.374;6.170;2023-04-05T10:47:26;101947.28;;;9.36;38.15
74372;BME280;62885;51.374;6.170;2023-04-05T10:49:55;101944.84;;;9.66;38.01
74372;BME280;62885;51.374;6.170;2023-04-05T10:52:21;101949.09;;;10.03;37.21
74372;BME280;62885;51.374;6.170;2023-04-05T10:54:48;101940.78;;;9.92;37.61
74372;BME280;62885;51.374;6.170;2023-04-05T10:57:14;101932.28;;;10.01;36.51
74372;BME280;62885;51.374;6.170;2023-04-05T10:59:43;101933.97;;;10.02;37.57
74372;BME280;62885;51.374;6.170;2023-04-05T11:02:09;101930.94;;;9.92;37.89
74372;BME280;62885;51.374;6.170;2023-04-05T11:04:35;101927.38;;;9.76;36.85
74372;BME280;62885;51.374;6.170;2023-04-05T11:07:16;101936.38;;;9.90;36.81
74372;BME280;62885;51.374;6.170;2023-04-05T11:10:03;101926.72;;;9.88;38.06
74372;BME280;62885;51.374;6.170;2023-04-05T11:15:27;101919.28;;;9.60;38.40
74372;BME280;62885;51.374;6.170;2023-04-05T11:18:19;101918.22;;;9.80;39.45
74372;BME280;62885;51.374;6.170;2023-04-05T11:20:49;101916.84;;;9.56;38.95
74372;BME280;62885;51.374;6.170;2023-04-05T11:23:21;101914.91;;;9.42;39.04
74372;BME280;62885;51.374;6.170;2023-04-05T11:25:55;101917.16;;;9.49;38.67
74372;BME280;62885;51.374;6.170;2023-04-05T11:31:13;101904.25;;;9.90;38.11
74372;BME280;62885;51.374;6.170;2023-04-05T11:36:11;101907.16;;;10.36;37.29
74372;BME280;62885;51.374;6.170;2023-04-05T11:38:37;101906.69;;;10.28;35.65
74372;BME280;62885;51.374;6.170;2023-04-05T11:41:05;101906.47;;;10.15;35.18
74372;BME280;62885;51.374;6.170;2023-04-05T11:43:32;101901.34;;;10.44;35.67
74372;BME280;62885;51.374;6.170;2023-04-05T11:46:01;101892.28;;;10.46;35.39
74372;BME280;62885;51.374;6.170;2023-04-05T11:48:28;101896.34;;;10.38;34.96
74372;BME280;62885;51.374;6.170;2023-04-05T11:50:55;101892.63;;;10.40;34.92
74372;BME280;62885;51.374;6.170;2023-04-05T11:53:21;101891.13;;;10.66;34.65
74372;BME280;62885;51.374;6.170;2023-04-05T11:55:48;101883.22;;;10.64;34.36
74372;BME280;62885;51.374;6.170;2023-04-05T11:58:21;101886.28;;;10.73;34.83
74372;BME280;62885;51.374;6.170;2023-04-05T12:00:57;101879.03;;;10.75;34.92
74372;BME280;62885;51.374;6.170;2023-04-05T12:03:22;101877.41;;;10.56;35.08
74372;BME280;62885;51.374;6.170;2023-04-05T12:05:52;101870.91;;;10.76;35.32
74372;BME280;62885;51.374;6.170;2023-04-05T12:08:19;101870.16;;;10.58;35.25
74372;BME280;62885;51.374;6.170;2023-04-05T12:10:55;101866.03;;;10.53;35.51
74372;BME280;62885;51.374;6.170;2023-04-05T12:13:33;101870.44;;;10.54;34.97
74372;BME280;62885;51.374;6.170;2023-04-05T12:16:04;101861.84;;;10.16;35.33
74372;BME280;62885;51.374;6.170;2023-04-05T12:18:30;101856.63;;;10.46;35.45
74372;BME280;62885;51.374;6.170;2023-04-05T12:20:56;101858.88;;;10.53;35.07
74372;BME280;62885;51.374;6.170;2023-04-05T12:23:22;101854.09;;;10.43;34.87
74372;BME280;62885;51.374;6.170;2023-04-05T12:25:49;101857.06;;;10.54;34.92
74372;BME280;62885;51.374;6.170;2023-04-05T12:28:16;101839.94;;;10.41;34.67
74372;BME280;62885;51.374;6.170;2023-04-05T12:31:09;101846.22;;;10.71;34.48
74372;BME280;62885;51.374;6.170;2023-04-05T12:33:39;101842.53;;;10.26;34.39
74372;BME280;62885;51.374;6.170;2023-04-05T12:36:06;101840.44;;;10.63;34.97
74372;BME280;62885;51.374;6.170;2023-04-05T12:38:32;101837.19;;;10.88;34.46
74372;BME280;62885;51.374;6.170;2023-04-05T12:41:03;101840.81;;;10.87;33.44
74372;BME280;62885;51.374;6.170;2023-04-05T12:43:41;101840.63;;;10.60;33.47
74372;BME280;62885;51.374;6.170;2023-04-05T12:46:39;101827.59;;;10.84;33.55
74372;BME280;62885;51.374;6.170;2023-04-05T12:49:05;101831.47;;;10.94;33.64
74372;BME280;62885;51.374;6.170;2023-04-05T12:51:31;101823.56;;;11.06;32.85
74372;BME280;62885;51.374;6.170;2023-04-05T12:53:59;101820.19;;;11.03;32.74
74372;BME280;62885;51.374;6.170;2023-04-05T12:56:27;101822.78;;;11.04;32.46
74372;BME280;62885;51.374;6.170;2023-04-05T12:58:53;101826.91;;;11.10;32.96
74372;BME280;62885;51.374;6.170;2023-04-05T13:01:19;101816.56;;;11.04;33.46
74372;BME280;62885;51.374;6.170;2023-04-05T13:03:45;101807.84;;;11.00;34.04
74372;BME280;62885;51.374;6.170;2023-04-05T13:06:11;101818.00;;;11.09;33.66
74372;BME280;62885;51.374;6.170;2023-04-05T13:08:36;101804.81;;;11.21;33.39
74372;BME280;62885;51.374;6.170;2023-04-05T13:11:02;101798.22;;;11.12;33.52
74372;BME280;62885;51.374;6.170;2023-04-05T13:13:27;101794.75;;;11.10;33.77
74372;BME280;62885;51.374;6.170;2023-04-05T13:15:53;101801.56;;;11.16;34.40
74372;BME280;62885;51.374;6.170;2023-04-05T13:18:18;101793.69;;;11.12;33.16
74372;BME280;62885;51.374;6.170;2023-04-05T13:20:44;101787.28;;;11.15;33.58
74372;BME280;62885;51.374;6.170;2023-04-05T13:23:10;101794.94;;;11.21;34.83
74372;BME280;62885;51.374;6.170;2023-04-05T13:25:37;101796.22;;;11.30;33.55
74372;BME280;62885;51.374;6.170;2023-04-05T13:28:03;101789.13;;;11.29;32.96
74372;BME280;62885;51.374;6.170;2023-04-05T13:30:29;101790.66;;;11.47;33.14